createdAt,value
2022-10-26T00:02:09.048Z,1.17
2022-10-26T00:04:36.047Z,1.00
2022-10-26T00:07:03.167Z,1.63
2022-10-26T00:09:30.087Z,1.15
2022-10-26T00:11:56.984Z,1.38
2022-10-26T00:14:24.127Z,1.30
2022-10-26T00:16:51.040Z,1.20
2022-10-26T00:19:18.132Z,1.00
2022-10-26T00:21:45.083Z,2.35
2022-10-26T00:24:12.766Z,1.08
2022-10-26T00:26:40.103Z,1.42
2022-10-26T00:29:07.723Z,1.08
2022-10-26T00:31:34.798Z,1.60
2022-10-26T00:34:01.792Z,1.20
2022-10-26T00:36:28.963Z,1.20
2022-10-26T00:38:57.171Z,1.10
2022-10-26T00:41:34.479Z,1.00
2022-10-26T00:44:01.617Z,1.02
2022-10-26T00:46:33.818Z,1.10
2022-10-26T00:49:04.959Z,0.90
2022-10-26T00:51:50.760Z,0.90
2022-10-26T00:54:19.303Z,0.90
2022-10-26T00:56:49.557Z,3.90
2022-10-26T00:59:17.350Z,1.20
2022-10-26T01:01:46.752Z,0.80
2022-10-26T01:04:15.104Z,1.33
2022-10-26T01:06:43.333Z,0.90
2022-10-26T01:09:10.956Z,0.90
2022-10-26T01:11:37.939Z,0.98
2022-10-26T01:14:08.746Z,0.80
2022-10-26T01:16:44.749Z,1.35
2022-10-26T01:19:23.922Z,1.30
2022-10-26T01:22:00.789Z,1.00
2022-10-26T01:24:55.242Z,1.13
2022-10-26T01:27:31.454Z,1.17
2022-10-26T01:30:07.223Z,1.30
2022-10-26T01:33:00.129Z,2.35
2022-10-26T01:35:42.693Z,1.20
2022-10-26T01:38:36.246Z,0.80
2022-10-26T01:41:13.966Z,1.30
2022-10-26T01:43:46.002Z,0.98
2022-10-26T01:46:14.075Z,1.77
2022-10-26T01:48:42.447Z,1.20
2022-10-26T01:51:12.444Z,1.30
2022-10-26T01:53:46.129Z,2.10
2022-10-26T01:56:26.377Z,1.60
2022-10-26T01:59:00.777Z,1.50
2022-10-26T02:01:38.799Z,1.45
2022-10-26T02:04:21.068Z,1.60
2022-10-26T02:07:19.563Z,1.33
2022-10-26T02:09:49.556Z,1.30
2022-10-26T02:12:37.700Z,1.10
2022-10-26T02:15:10.068Z,1.20
2022-10-26T02:17:47.096Z,1.80
2022-10-26T02:20:28.708Z,1.40
2022-10-26T02:22:56.664Z,1.50
2022-10-26T02:25:32.183Z,1.70
2022-10-26T02:28:10.202Z,1.40
2022-10-26T02:30:39.329Z,1.40
2022-10-26T02:33:08.905Z,1.40
2022-10-26T02:35:37.997Z,1.55
2022-10-26T02:38:08.919Z,1.50
2022-10-26T02:40:37.605Z,1.60
2022-10-26T02:43:10.425Z,2.60
2022-10-26T02:45:48.328Z,1.45
2022-10-26T02:48:16.419Z,1.30
2022-10-26T02:50:58.538Z,1.50
2022-10-26T02:53:33.598Z,1.73
2022-10-26T02:56:07.491Z,1.30
2022-10-26T02:58:40.024Z,1.50
2022-10-26T03:01:08.188Z,1.35
2022-10-26T03:03:35.365Z,1.55
2022-10-26T03:06:02.439Z,1.50
2022-10-26T03:10:56.282Z,1.80
2022-10-26T03:13:23.552Z,1.33
2022-10-26T03:15:50.451Z,1.67
2022-10-26T03:18:17.432Z,1.40
2022-10-26T03:20:45.510Z,1.65
2022-10-26T03:23:12.638Z,1.60
2022-10-26T03:25:39.649Z,1.95
2022-10-26T03:28:07.391Z,1.98
2022-10-26T03:30:34.419Z,1.58
2022-10-26T03:33:01.326Z,1.60
2022-10-26T03:35:28.253Z,1.73
2022-10-26T03:37:55.332Z,1.90
2022-10-26T03:40:22.281Z,1.52
2022-10-26T03:42:49.428Z,1.95
2022-10-26T03:45:16.767Z,2.05
2022-10-26T03:47:45.661Z,2.38
2022-10-26T03:50:14.614Z,2.35
2022-10-26T03:52:41.850Z,1.92
2022-10-26T03:55:10.240Z,2.10
2022-10-26T03:57:44.254Z,3.92
2022-10-26T04:00:16.812Z,2.72
2022-10-26T04:02:48.579Z,2.00
2022-10-26T04:05:16.836Z,2.03
2022-10-26T04:07:44.195Z,3.10
2022-10-26T04:10:11.444Z,2.45
2022-10-26T04:12:39.128Z,1.88
2022-10-26T04:15:07.528Z,2.95
2022-10-26T04:17:34.829Z,2.38
2022-10-26T04:20:01.796Z,2.58
2022-10-26T04:22:28.842Z,2.42
2022-10-26T04:24:55.812Z,3.00
2022-10-26T04:27:22.752Z,3.13
2022-10-26T04:29:49.819Z,2.53
2022-10-26T04:32:16.746Z,2.80
2022-10-26T04:34:43.718Z,2.80
2022-10-26T04:37:10.868Z,2.33
2022-10-26T04:39:37.954Z,2.38
2022-10-26T04:42:05.039Z,2.67
2022-10-26T04:44:32.021Z,2.42
2022-10-26T04:46:58.979Z,2.28
2022-10-26T04:49:25.960Z,2.05
2022-10-26T04:51:52.914Z,2.30
2022-10-26T04:54:20.475Z,2.60
2022-10-26T04:59:14.492Z,3.17
2022-10-26T05:01:41.628Z,3.10
2022-10-26T05:04:08.811Z,3.08
2022-10-26T05:06:35.845Z,2.55
2022-10-26T05:09:03.300Z,2.83
2022-10-26T05:11:30.341Z,2.70
2022-10-26T05:13:57.268Z,2.00
2022-10-26T05:16:24.304Z,2.92
2022-10-26T05:19:25.561Z,2.17
2022-10-26T05:22:12.527Z,2.63
2022-10-26T05:28:00.766Z,2.90
2022-10-26T05:30:58.615Z,2.58
2022-10-26T05:33:29.792Z,3.15
2022-10-26T05:36:12.822Z,2.70
2022-10-26T05:39:05.402Z,2.80
2022-10-26T05:41:32.919Z,3.13
2022-10-26T05:44:00.031Z,3.03
2022-10-26T05:46:27.112Z,2.95
2022-10-26T05:48:57.367Z,2.60
2022-10-26T05:51:24.814Z,2.80
2022-10-26T05:53:54.846Z,3.03
2022-10-26T05:56:37.570Z,2.95
2022-10-26T05:59:11.595Z,2.47
2022-10-26T06:02:04.482Z,2.58
2022-10-26T06:04:52.524Z,2.70
2022-10-26T06:07:20.963Z,2.70
2022-10-26T06:09:49.852Z,2.58
2022-10-26T06:12:19.542Z,2.20
2022-10-26T06:14:47.590Z,2.40
2022-10-26T06:17:33.994Z,2.33
2022-10-26T06:20:19.120Z,2.38
2022-10-26T06:23:00.641Z,3.47
2022-10-26T06:25:33.431Z,2.53
2022-10-26T06:30:36.421Z,2.13
2022-10-26T06:33:11.580Z,2.60
2022-10-26T06:35:58.587Z,2.97
2022-10-26T06:38:29.204Z,3.47
2022-10-26T06:40:57.622Z,3.70
2022-10-26T06:43:31.702Z,3.38
2022-10-26T06:46:17.924Z,2.95
2022-10-26T06:49:01.893Z,2.25
2022-10-26T06:51:31.064Z,2.35
2022-10-26T06:54:06.725Z,2.88
2022-10-26T06:56:34.769Z,2.90
2022-10-26T06:59:15.498Z,2.70
2022-10-26T07:01:42.656Z,2.42
2022-10-26T07:04:10.666Z,3.67
2022-10-26T07:06:39.278Z,2.33
2022-10-26T07:09:06.697Z,2.50
2022-10-26T07:11:33.677Z,2.25
2022-10-26T07:14:00.691Z,2.00
2022-10-26T07:16:29.143Z,2.28
2022-10-26T07:18:56.155Z,2.33
2022-10-26T07:21:23.107Z,2.50
2022-10-26T07:23:50.130Z,2.00
2022-10-26T07:26:17.170Z,2.13
2022-10-26T07:28:44.186Z,2.40
2022-10-26T07:31:11.235Z,2.58
2022-10-26T07:33:41.459Z,2.63
2022-10-26T07:36:11.050Z,2.58
2022-10-26T07:38:39.233Z,2.17
2022-10-26T07:41:06.622Z,2.22
2022-10-26T07:43:33.719Z,2.40
2022-10-26T07:46:00.913Z,2.78
2022-10-26T07:48:28.078Z,1.88
2022-10-26T07:50:55.173Z,2.30
2022-10-26T07:53:27.467Z,3.85
2022-10-26T07:55:56.414Z,2.45
2022-10-26T07:58:27.264Z,2.15
2022-10-26T08:00:54.880Z,2.35
2022-10-26T08:03:22.460Z,2.85
2022-10-26T08:06:01.231Z,2.30
2022-10-26T08:08:32.269Z,2.42
2022-10-26T08:11:00.149Z,3.03
2022-10-26T08:19:11.711Z,3.05
2022-10-26T08:27:14.784Z,2.88
2022-10-26T08:30:08.487Z,2.85
2022-10-26T08:32:47.916Z,2.75
2022-10-26T08:35:25.975Z,2.80
2022-10-26T08:38:06.721Z,2.88
2022-10-26T08:40:44.851Z,2.78
2022-10-26T08:43:23.877Z,2.47
2022-10-26T08:46:06.281Z,2.58
2022-10-26T08:54:27.883Z,2.55
2022-10-26T08:57:08.298Z,3.40
2022-10-26T09:00:12.854Z,2.50
2022-10-26T09:02:42.321Z,3.47
2022-10-26T09:05:46.674Z,2.40
2022-10-26T09:08:42.509Z,3.08
2022-10-26T09:11:34.457Z,2.58
2022-10-26T09:14:57.119Z,2.38
2022-10-26T09:18:25.166Z,2.90
2022-10-26T09:21:22.312Z,2.63
2022-10-26T09:24:08.762Z,2.40
2022-10-26T09:27:00.138Z,2.85
2022-10-26T09:29:49.343Z,2.33
2022-10-26T09:32:30.514Z,2.30
2022-10-26T09:35:47.084Z,2.60
2022-10-26T09:38:47.151Z,3.13
2022-10-26T09:42:27.269Z,2.35
2022-10-26T09:45:43.812Z,2.40
2022-10-26T09:48:41.861Z,2.40
2022-10-26T09:51:13.530Z,2.40
2022-10-26T09:53:49.362Z,2.65
2022-10-26T09:56:29.961Z,2.67
2022-10-26T09:59:21.345Z,2.50
2022-10-26T10:01:56.729Z,2.97
2022-10-26T10:04:39.897Z,2.70
2022-10-26T10:07:18.887Z,2.58
2022-10-26T10:10:17.410Z,2.95
2022-10-26T10:12:53.489Z,2.75
2022-10-26T10:15:31.625Z,2.53
2022-10-26T10:18:59.520Z,2.83
2022-10-26T10:21:48.565Z,2.93
2022-10-26T10:24:43.130Z,3.13
2022-10-26T10:27:33.754Z,3.17
2022-10-26T10:31:05.802Z,3.30
2022-10-26T10:36:47.791Z,2.50
2022-10-26T10:43:21.305Z,2.88
2022-10-26T10:45:59.396Z,3.08
2022-10-26T10:48:39.506Z,3.42
2022-10-26T10:51:22.574Z,3.13
2022-10-26T10:54:03.158Z,3.35
2022-10-26T10:57:00.312Z,3.55
2022-10-26T11:03:53.050Z,3.30
2022-10-26T11:07:52.398Z,2.95
2022-10-26T11:10:31.621Z,2.83
2022-10-26T11:13:02.610Z,3.50
2022-10-26T11:15:34.633Z,2.97
2022-10-26T11:18:12.747Z,3.17
2022-10-26T11:20:51.997Z,3.25
2022-10-26T11:23:41.064Z,3.22
2022-10-26T11:26:29.986Z,3.63
2022-10-26T11:29:11.105Z,3.00
2022-10-26T11:31:43.695Z,4.32
2022-10-26T11:36:51.711Z,2.67
2022-10-26T11:39:47.262Z,2.70
2022-10-26T11:42:24.379Z,3.03
2022-10-26T11:45:10.098Z,2.40
2022-10-26T11:47:55.096Z,2.72
2022-10-26T11:50:27.286Z,2.50
2022-10-26T11:53:15.144Z,3.03
2022-10-26T11:55:46.261Z,2.67
2022-10-26T11:58:17.186Z,2.50
2022-10-26T12:00:50.748Z,2.90
2022-10-26T12:03:23.548Z,3.20
2022-10-26T12:05:52.030Z,2.40
2022-10-26T12:08:21.685Z,2.95
2022-10-26T12:11:14.303Z,2.55
2022-10-26T12:13:52.780Z,3.03
2022-10-26T12:16:38.333Z,2.47
2022-10-26T12:21:55.755Z,2.78
2022-10-26T12:24:27.126Z,2.22
2022-10-26T12:26:55.605Z,2.85
2022-10-26T12:29:37.173Z,3.53
2022-10-26T12:32:31.097Z,3.23
2022-10-26T12:35:00.813Z,2.25
2022-10-26T12:37:36.902Z,2.58
2022-10-26T12:40:32.920Z,2.30
2022-10-26T12:43:15.135Z,3.20
2022-10-26T12:45:44.301Z,2.80
2022-10-26T12:48:39.235Z,2.58
2022-10-26T12:51:22.078Z,2.67
2022-10-26T12:54:01.243Z,2.97
2022-10-26T12:56:35.424Z,2.78
2022-10-26T12:59:45.977Z,2.35
2022-10-26T13:02:44.039Z,2.97
2022-10-26T13:05:20.192Z,2.75
2022-10-26T13:07:47.570Z,2.33
2022-10-26T13:10:14.621Z,3.03
2022-10-26T13:12:52.428Z,2.97
2022-10-26T13:15:28.900Z,2.05
2022-10-26T13:18:09.733Z,2.70
2022-10-26T13:20:51.543Z,2.60
2022-10-26T13:23:26.736Z,2.40
2022-10-26T13:26:18.149Z,2.70
2022-10-26T13:29:02.827Z,2.55
2022-10-26T13:31:31.562Z,2.38
2022-10-26T13:34:03.889Z,2.80
2022-10-26T13:39:04.079Z,2.47
2022-10-26T13:41:37.312Z,2.92
2022-10-26T13:44:17.501Z,2.50
2022-10-26T13:46:46.808Z,2.50
2022-10-26T13:49:34.759Z,2.83
2022-10-26T13:52:03.564Z,2.45
2022-10-26T13:54:44.319Z,2.75
2022-10-26T13:57:21.127Z,2.80
2022-10-26T13:59:48.427Z,2.58
2022-10-26T14:02:24.608Z,2.70
2022-10-26T14:05:01.722Z,2.58
2022-10-26T14:07:34.758Z,2.45
2022-10-26T14:10:01.779Z,2.40
2022-10-26T14:12:29.252Z,2.20
2022-10-26T14:15:07.816Z,2.50
2022-10-26T14:17:35.096Z,3.00
2022-10-26T14:20:04.774Z,3.17
2022-10-26T14:22:31.839Z,2.65
2022-10-26T14:25:00.729Z,3.20
2022-10-26T14:27:33.249Z,2.67
2022-10-26T14:32:48.750Z,2.75
2022-10-26T14:35:16.308Z,2.35
2022-10-26T14:37:58.187Z,2.10
2022-10-26T14:40:31.855Z,2.77
2022-10-26T14:43:00.484Z,2.35
2022-10-26T14:45:47.988Z,3.15
2022-10-26T14:48:35.743Z,2.55
2022-10-26T14:51:16.664Z,2.65
2022-10-26T14:53:50.994Z,3.05
2022-10-26T14:56:36.563Z,2.40
2022-10-26T14:59:29.927Z,2.60
2022-10-26T15:02:15.706Z,2.70
2022-10-26T15:05:16.961Z,2.40
2022-10-26T15:07:44.827Z,2.85
2022-10-26T15:10:39.762Z,2.30
2022-10-26T15:13:31.037Z,2.40
2022-10-26T15:16:18.898Z,2.40
2022-10-26T15:19:10.931Z,3.03
2022-10-26T15:21:42.671Z,2.40
2022-10-26T15:24:38.974Z,2.78
2022-10-26T15:27:15.956Z,2.83
2022-10-26T15:29:48.840Z,2.90
2022-10-26T15:32:19.052Z,2.72
2022-10-26T15:34:50.663Z,2.38
2022-10-26T15:37:17.773Z,2.50
2022-10-26T15:39:44.765Z,2.25
2022-10-26T15:42:15.074Z,3.40
2022-10-26T15:44:42.114Z,2.95
2022-10-26T15:47:19.235Z,2.40
2022-10-26T15:49:47.031Z,2.47
2022-10-26T15:52:14.380Z,2.40
2022-10-26T15:54:41.378Z,2.55
2022-10-26T15:57:13.716Z,2.63
2022-10-26T15:59:42.510Z,2.58
2022-10-26T16:02:16.918Z,2.85
2022-10-26T16:04:44.110Z,2.95
2022-10-26T16:07:15.752Z,2.47
2022-10-26T16:09:50.136Z,3.43
2022-10-26T16:12:17.601Z,3.22
2022-10-26T16:15:04.270Z,2.35
2022-10-26T16:17:33.522Z,2.55
2022-10-26T16:20:06.612Z,2.92
2022-10-26T16:22:38.293Z,4.85
2022-10-26T16:25:06.199Z,3.15
2022-10-26T16:27:33.254Z,3.20
2022-10-26T16:30:00.195Z,2.85
2022-10-26T16:32:27.673Z,3.10
2022-10-26T16:34:54.658Z,3.33
2022-10-26T16:37:23.420Z,5.65
2022-10-26T16:39:53.887Z,5.85
2022-10-26T16:42:21.090Z,3.03
2022-10-26T16:44:52.170Z,3.85
2022-10-26T16:47:31.840Z,3.67
2022-10-26T16:50:01.863Z,2.95
2022-10-26T16:52:32.360Z,3.20
2022-10-26T16:55:12.380Z,3.03
2022-10-26T16:57:49.732Z,4.88
2022-10-26T17:00:50.169Z,3.65
2022-10-26T17:03:41.946Z,2.50
2022-10-26T17:06:27.543Z,3.60
2022-10-26T17:09:02.160Z,2.70
2022-10-26T17:11:34.836Z,2.05
2022-10-26T17:14:03.681Z,3.05
2022-10-26T17:16:30.677Z,6.60
2022-10-26T17:18:57.677Z,8.32
2022-10-26T17:21:31.059Z,6.70
2022-10-26T17:23:58.916Z,4.43
2022-10-26T17:26:26.457Z,4.72
2022-10-26T17:28:55.040Z,2.90
2022-10-26T17:31:22.598Z,2.38
2022-10-26T17:33:51.083Z,2.60
2022-10-26T17:36:22.553Z,2.35
2022-10-26T17:38:51.445Z,2.42
2022-10-26T17:41:23.811Z,2.38
2022-10-26T17:43:51.108Z,2.53
2022-10-26T17:46:20.400Z,2.90
2022-10-26T17:48:47.692Z,3.35
2022-10-26T17:51:17.475Z,3.17
2022-10-26T17:53:47.878Z,9.32
2022-10-26T17:56:23.583Z,7.47
2022-10-26T17:58:58.056Z,4.25
2022-10-26T18:01:26.097Z,5.85
2022-10-26T18:03:54.805Z,22.85
2022-10-26T18:06:22.774Z,25.65
2022-10-26T18:08:49.921Z,41.33
2022-10-26T18:11:26.145Z,35.22
2022-10-26T18:13:54.459Z,19.33
2022-10-26T18:16:22.651Z,18.33
2022-10-26T18:18:58.883Z,14.48
2022-10-26T18:21:27.164Z,11.70
2022-10-26T18:23:54.234Z,9.50
2022-10-26T18:26:26.248Z,6.10
2022-10-26T18:28:53.397Z,20.13
2022-10-26T18:31:22.178Z,4.70
2022-10-26T18:33:53.886Z,5.28
2022-10-26T18:36:21.155Z,5.65
2022-10-26T18:38:48.405Z,3.83
2022-10-26T18:41:17.845Z,2.72
2022-10-26T18:43:50.040Z,2.03
2022-10-26T18:46:23.599Z,2.50
2022-10-26T18:48:52.011Z,2.30
2022-10-26T18:51:21.765Z,2.70
2022-10-26T18:53:49.495Z,1.88
2022-10-26T18:56:21.412Z,1.80
2022-10-26T18:58:51.058Z,2.42
2022-10-26T19:01:30.739Z,1.67
2022-10-26T19:04:00.771Z,1.70
2022-10-26T19:06:30.714Z,2.95
2022-10-26T19:08:58.204Z,3.15
2022-10-26T19:11:27.118Z,3.45
2022-10-26T19:13:54.319Z,2.28
2022-10-26T19:16:45.208Z,2.20
2022-10-26T19:19:14.404Z,1.75
2022-10-26T19:21:41.500Z,1.67
2022-10-26T19:24:13.081Z,1.77
2022-10-26T19:26:43.535Z,1.35
2022-10-26T19:29:16.762Z,1.10
2022-10-26T19:31:45.726Z,1.48
2022-10-26T19:34:34.386Z,1.60
2022-10-26T19:37:03.361Z,1.63
2022-10-26T19:39:30.371Z,1.25
2022-10-26T19:41:57.493Z,1.63
2022-10-26T19:44:25.601Z,1.60
2022-10-26T19:46:52.854Z,1.48
2022-10-26T19:49:19.870Z,1.30
2022-10-26T19:51:48.379Z,1.70
2022-10-26T19:54:15.415Z,1.67
2022-10-26T19:56:42.435Z,1.80
2022-10-26T19:59:11.269Z,2.20
2022-10-26T20:01:39.033Z,2.10
2022-10-26T20:04:06.570Z,2.20
2022-10-26T20:06:33.662Z,2.30
2022-10-26T20:09:01.763Z,2.30
2022-10-26T20:11:29.328Z,2.22
2022-10-26T20:13:56.656Z,1.25
2022-10-26T20:16:24.058Z,1.35
2022-10-26T20:18:51.181Z,1.50
2022-10-26T20:21:18.243Z,1.80
2022-10-26T20:23:45.892Z,1.67
2022-10-26T20:26:18.665Z,2.00
2022-10-26T20:28:53.197Z,2.17
2022-10-26T20:31:20.269Z,2.40
2022-10-26T20:33:52.640Z,2.22
2022-10-26T20:36:19.961Z,2.30
2022-10-26T20:38:47.473Z,1.40
2022-10-26T20:41:14.840Z,1.40
2022-10-26T20:43:42.711Z,1.40
2022-10-26T20:46:11.987Z,2.40
2022-10-26T20:48:39.262Z,1.90
2022-10-26T20:51:22.221Z,1.90
2022-10-26T20:54:14.003Z,1.35
2022-10-26T20:56:42.423Z,1.63
2022-10-26T20:59:23.209Z,2.28
2022-10-26T21:01:50.414Z,1.63
2022-10-26T21:04:17.558Z,1.20
2022-10-26T21:06:44.749Z,1.42
2022-10-26T21:09:11.780Z,1.50
2022-10-26T21:11:40.263Z,2.65
2022-10-26T21:14:08.241Z,1.20
2022-10-26T21:16:35.535Z,1.60
2022-10-26T21:19:05.082Z,1.67
2022-10-26T21:21:32.593Z,1.08
2022-10-26T21:24:00.676Z,1.30
2022-10-26T21:26:28.991Z,1.45
2022-10-26T21:28:55.975Z,1.20
2022-10-26T21:31:22.977Z,1.60
2022-10-26T21:33:50.102Z,1.80
2022-10-26T21:36:17.246Z,1.27
2022-10-26T21:38:45.729Z,1.25
2022-10-26T21:41:18.295Z,1.33
2022-10-26T21:43:59.172Z,1.10
2022-10-26T21:46:37.752Z,1.27
2022-10-26T21:49:06.838Z,1.42
2022-10-26T21:51:35.101Z,1.23
2022-10-26T21:54:02.576Z,1.20
2022-10-26T21:56:29.617Z,1.20
2022-10-26T21:58:58.425Z,1.30
2022-10-26T22:01:25.555Z,1.30
2022-10-26T22:03:52.586Z,1.13
2022-10-26T22:06:21.644Z,1.50
2022-10-26T22:08:48.865Z,1.42
2022-10-26T22:11:24.292Z,1.42
2022-10-26T22:13:52.829Z,1.10
2022-10-26T22:16:25.729Z,1.17
2022-10-26T22:18:55.299Z,1.20
2022-10-26T22:21:27.056Z,1.20
2022-10-26T22:23:54.374Z,1.15
2022-10-26T22:26:23.589Z,1.13
2022-10-26T22:28:55.265Z,1.27
2022-10-26T22:31:28.064Z,1.63
2022-10-26T22:33:57.184Z,1.58
2022-10-26T22:36:25.020Z,1.80
2022-10-26T22:38:52.716Z,1.60
2022-10-26T22:41:20.996Z,1.30
2022-10-26T22:43:48.136Z,1.30
2022-10-26T22:46:17.892Z,1.20
2022-10-26T22:48:48.095Z,1.15
2022-10-26T22:51:22.403Z,1.67
2022-10-26T22:53:54.014Z,1.60
2022-10-26T22:56:22.114Z,1.48
2022-10-26T22:58:49.443Z,1.60
2022-10-26T23:01:18.572Z,1.65
2022-10-26T23:03:45.542Z,1.50
2022-10-26T23:06:15.224Z,1.70
2022-10-26T23:08:42.491Z,1.60
2022-10-26T23:11:13.906Z,1.45
2022-10-26T23:13:41.052Z,1.23
2022-10-26T23:16:17.980Z,1.70
2022-10-26T23:18:45.027Z,1.40
2022-10-26T23:21:13.688Z,1.70
2022-10-26T23:23:41.322Z,1.70
2022-10-26T23:26:12.204Z,1.50
2022-10-26T23:28:39.997Z,1.70
2022-10-26T23:31:07.223Z,1.60
2022-10-26T23:33:34.521Z,2.20
2022-10-26T23:36:01.705Z,1.55
2022-10-26T23:38:28.842Z,1.70
2022-10-26T23:41:00.155Z,1.90
2022-10-26T23:43:27.906Z,1.75
2022-10-26T23:45:56.013Z,1.80
2022-10-26T23:48:23.240Z,1.70
2022-10-26T23:50:51.035Z,2.00
2022-10-26T23:53:20.932Z,2.17
2022-10-26T23:55:48.363Z,2.05
2022-10-26T23:58:16.767Z,1.75
